Time;durP1;ratioP1;P1;durP2;ratioP2;P2;SDS_P1;SDS_P2;PMS_P1;PMS_P2;Temp;Humidity;BMP_temperature;BMP_pressure;BME280_temperature;BME280_humidity;BME280_pressure;Samples;Min_cycle;Max_cycle;Signal;HPM_P1;HPM_P2
2022/02/23 00:01:06;;;;;;;0.57;0.57;;;;;;;7.63;78.66;99266.31;4937828;29;20159;-68
2022/02/23 00:03:31;;;;;;;7.15;0.98;;;;;;;7.65;78.79;99273.22;4930548;29;20028;-68
2022/02/23 00:05:56;;;;;;;0.40;0.40;;;;;;;7.61;78.95;99274.06;4930925;29;20023;-68
2022/02/23 00:08:22;;;;;;;0.55;0.55;;;;;;;7.74;78.85;99272.38;4936369;29;20381;-68
2022/02/23 00:10:47;;;;;;;0.52;0.52;;;;;;;7.74;78.50;99277.53;4937578;29;20034;-68
2022/02/23 00:13:12;;;;;;;0.57;0.57;;;;;;;7.71;78.69;99274.94;4937613;29;20039;-68
2022/02/23 00:15:38;;;;;;;0.50;0.50;;;;;;;7.73;78.64;99280.94;4937485;29;20023;-68
2022/02/23 00:18:03;;;;;;;0.40;0.40;;;;;;;7.78;78.30;99286.13;4937246;29;20042;-68
2022/02/23 00:20:29;;;;;;;0.38;0.38;;;;;;;7.73;78.89;99288.69;4937375;29;20116;-68
2022/02/23 00:22:54;;;;;;;0.65;0.65;;;;;;;7.73;79.15;99278.38;4937367;29;20426;-68
2022/02/23 00:25:21;;;;;;;1.02;1.02;;;;;;;7.78;78.68;99281.81;4937311;29;20035;-68
2022/02/23 00:27:46;;;;;;;1.58;1.48;;;;;;;7.84;78.20;99284.44;4936995;29;20027;-68
2022/02/23 00:30:11;;;;;;;0.50;0.50;;;;;;;7.90;78.38;99276.69;4937217;29;20036;-68
2022/02/23 00:32:37;;;;;;;0.40;0.40;;;;;;;7.85;78.25;99283.56;4931534;29;20502;-68
2022/02/23 00:35:03;;;;;;;0.45;0.45;;;;;;;7.85;78.28;99280.13;4929166;29;20042;-68
2022/02/23 00:37:28;;;;;;;0.40;0.40;;;;;;;7.86;78.57;99289.59;4936961;29;20023;-68
2022/02/23 00:39:53;;;;;;;0.40;0.40;;;;;;;7.89;78.65;99285.28;4937037;29;20027;-68
2022/02/23 00:42:19;;;;;;;0.40;0.40;;;;;;;7.91;78.64;99286.13;4937010;29;20071;-68
2022/02/23 00:44:44;;;;;;;0.40;0.40;;;;;;;7.90;78.57;99294.75;4936817;29;20028;-68
2022/02/23 00:47:12;;;;;;;1.75;1.50;;;;;;;7.89;79.03;99297.34;4935543;29;20035;-68
2022/02/23 00:49:38;;;;;;;0.50;0.50;;;;;;;7.90;78.91;99296.47;4936739;29;20465;-68
2022/02/23 00:52:06;;;;;;;0.50;0.50;;;;;;;7.87;79.36;99307.63;4936951;29;20040;-68
2022/02/23 00:54:35;;;;;;;0.47;0.47;;;;;;;7.88;79.26;99309.38;4936680;29;20500;-68
2022/02/23 00:57:02;;;;;;;0.43;0.43;;;;;;;7.88;79.74;99309.38;4936666;29;20035;-68
2022/02/23 00:59:27;;;;;;;0.50;0.50;;;;;;;7.95;79.92;99311.09;4936606;29;20039;-68
2022/02/23 05:15:32;;;;;;;0.68;0.68;;;;;;;3.54;100.00;99781.53;5860474;23;20060;-70
2022/02/23 05:17:57;;;;;;;0.50;0.50;;;;;;;3.38;100.00;99777.66;4917256;29;20048;-70
2022/02/23 05:20:23;;;;;;;0.50;0.50;;;;;;;3.30;100.00;99772.34;4917329;29;20032;-70
2022/02/23 05:22:49;;;;;;;1.00;1.00;;;;;;;3.23;100.00;99773.00;4917262;29;20060;-70
2022/02/23 05:25:16;;;;;;;0.40;0.40;;;;;;;3.10;100.00;99778.63;4917129;29;20031;-70
2022/02/23 05:27:41;;;;;;;0.60;0.60;;;;;;;3.06;100.00;99781.91;4917004;29;20485;-70
2022/02/23 05:30:08;;;;;;;0.93;0.93;;;;;;;3.08;100.00;99780.25;4917790;29;20043;-71
2022/02/23 05:32:34;;;;;;;1.27;1.20;;;;;;;2.95;100.00;99781.63;4918612;29;20028;-71
2022/02/23 05:35:00;;;;;;;0.50;0.50;;;;;;;2.86;100.00;99777.94;4928066;29;20031;-71
2022/02/23 05:37:25;;;;;;;0.80;0.80;;;;;;;2.80;100.00;99783.72;4935975;29;20038;-71
2022/02/23 05:39:50;;;;;;;0.70;0.70;;;;;;;2.83;100.00;99779.56;4935991;29;20036;-71
2022/02/23 05:42:15;;;;;;;2.38;0.80;;;;;;;2.82;100.00;99782.94;4936175;29;20035;-71
2022/02/23 05:44:41;;;;;;;0.90;0.90;;;;;;;2.80;100.00;99789.72;4935784;29;20071;-71
2022/02/23 05:47:06;;;;;;;0.70;0.70;;;;;;;2.90;100.00;99789.97;4935749;29;20075;-71
2022/02/23 05:49:31;;;;;;;0.52;0.52;;;;;;;2.98;100.00;99793.63;4934596;29;20079;-71
2022/02/23 05:51:57;;;;;;;0.57;0.57;;;;;;;2.90;100.00;99798.53;4935771;29;20035;-71
2022/02/23 05:54:22;;;;;;;5.40;2.55;;;;;;;2.90;100.00;99800.19;4935894;29;20066;-71
2022/02/23 05:56:48;;;;;;;0.60;0.60;;;;;;;2.86;100.00;99811.22;4935534;29;20023;-71
2022/02/23 05:59:13;;;;;;;1.80;1.73;;;;;;;2.75;100.00;99814.28;4935746;29;20484;-71
2022/02/23 06:01:39;;;;;;;1.60;1.50;;;;;;;2.68;100.00;99816.63;4935402;29;20075;-71
2022/02/23 06:04:06;;;;;;;0.70;0.70;;;;;;;2.52;100.00;99828.09;4924359;29;20027;-71
2022/02/23 06:06:31;;;;;;;1.65;1.55;;;;;;;2.52;100.00;99822.97;4932979;29;20544;-71
2022/02/23 06:08:56;;;;;;;1.05;1.05;;;;;;;2.48;100.00;99824.56;4935752;29;20032;-71
2022/02/23 06:11:22;;;;;;;0.95;0.95;;;;;;;2.41;100.00;99837.09;4935485;29;20477;-71
2022/02/23 06:13:51;;;;;;;0.60;0.60;;;;;;;2.46;100.00;99838.97;4935313;29;20098;-71
2022/02/23 06:16:23;;;;;;;1.48;1.25;;;;;;;2.46;100.00;99843.22;4934919;29;20110;-72
2022/02/23 06:18:50;;;;;;;2.13;2.03;;;;;;;2.43;100.00;99843.16;4935413;29;20031;-72
2022/02/23 06:21:15;;;;;;;1.33;1.23;;;;;;;2.43;100.00;99850.81;4935264;29;20492;-71
2022/02/23 06:23:42;;;;;;;2.00;1.67;;;;;;;2.41;100.00;99849.88;4935269;29;20031;-71
2022/02/23 06:26:07;;;;;;;2.03;1.88;;;;;;;2.44;100.00;99855.09;4934931;29;20024;-71
2022/02/23 06:28:33;;;;;;;1.40;1.38;;;;;;;2.49;100.00;99854.44;4935337;29;20397;-71
2022/02/23 06:30:59;;;;;;;0.80;0.80;;;;;;;2.38;100.00;99860.03;4935094;29;20035;-71
2022/02/23 06:33:25;;;;;;;0.98;0.98;;;;;;;2.53;100.00;99865.63;4928838;29;20473;-71
2022/02/23 06:35:54;;;;;;;0.80;0.80;;;;;;;2.63;100.00;99870.22;4927456;29;20030;-71
2022/02/23 06:38:20;;;;;;;5.45;0.90;;;;;;;2.87;100.00;99871.81;4935147;29;20035;-72
2022/02/23 06:40:48;;;;;;;1.48;1.38;;;;;;;3.00;100.00;99876.47;4935194;29;20024;-71
2022/02/23 06:43:15;;;;;;;0.95;0.95;;;;;;;3.16;100.00;99881.22;4934981;29;20031;-71
2022/02/23 06:45:43;;;;;;;0.65;0.65;;;;;;;3.32;100.00;99893.63;4934846;29;20019;-71
2022/02/23 06:48:09;;;;;;;1.33;1.33;;;;;;;3.35;100.00;99896.28;4934901;29;20044;-71
2022/02/23 06:50:35;;;;;;;1.05;1.05;;;;;;;3.62;100.00;99897.88;4935025;29;20503;-71
2022/02/23 06:53:00;;;;;;;2.70;2.50;;;;;;;3.42;100.00;99899.00;4949599;29;20470;-70
2022/02/23 06:55:25;;;;;;;1.05;1.05;;;;;;;3.52;100.00;99895.88;4934749;29;20020;-70
2022/02/23 06:57:51;;;;;;;1.45;1.27;;;;;;;3.67;100.00;99898.88;4934480;29;20032;-71
2022/02/23 07:00:17;;;;;;;1.02;1.02;;;;;;;3.69;100.00;99909.19;4933596;29;20043;-71
2022/02/23 07:02:42;;;;;;;2.55;1.25;;;;;;;3.71;99.74;99913.50;4928730;29;20064;-71
2022/02/23 07:05:09;;;;;;;12.18;1.80;;;;;;;3.52;100.00;99921.50;4926374;29;20027;-71
2022/02/23 07:07:34;;;;;;;1.60;1.50;;;;;;;3.55;100.00;99921.59;4934477;29;20118;-71
2022/02/23 07:09:59;;;;;;;0.60;0.60;;;;;;;3.32;100.00;99916.69;4934797;29;20122;-71
2022/02/23 07:12:25;;;;;;;0.68;0.68;;;;;;;3.44;100.00;99925.56;4934633;29;20035;-71
2022/02/23 07:14:50;;;;;;;0.95;0.95;;;;;;;3.51;100.00;99922.34;4934418;29;20031;-71
2022/02/23 07:17:16;;;;;;;1.27;1.27;;;;;;;3.49;100.00;99927.44;4934382;29;20035;-71
2022/02/23 07:19:41;;;;;;;2.58;1.17;;;;;;;3.61;100.00;99929.47;4934629;29;20099;-71
2022/02/23 07:22:07;;;;;;;0.70;0.70;;;;;;;3.63;100.00;99932.94;4934838;29;20505;-71
2022/02/23 07:24:35;;;;;;;1.08;1.08;;;;;;;3.67;99.84;99927.06;4934566;29;20051;-71
2022/02/23 07:27:00;;;;;;;1.02;1.02;;;;;;;3.61;100.00;99937.16;4938081;29;20548;-71
2022/02/23 07:29:26;;;;;;;1.17;1.02;;;;;;;3.61;100.00;99932.03;4938391;29;20150;-71
2022/02/23 07:31:51;;;;;;;1.00;1.00;;;;;;;3.47;100.00;99934.19;4936292;29;20042;-71
2022/02/23 07:34:18;;;;;;;2.25;2.05;;;;;;;3.45;100.00;99934.97;4926983;29;20024;-70
2022/02/23 07:36:44;;;;;;;1.00;1.00;;;;;;;3.52;100.00;99942.00;4937314;29;20416;-70
2022/02/23 07:39:11;;;;;;;0.82;0.82;;;;;;;3.55;100.00;99942.97;4938000;29;20120;-71
2022/02/23 07:41:36;;;;;;;1.13;1.13;;;;;;;3.60;100.00;99951.66;4937919;29;20489;-67
2022/02/23 07:44:02;;;;;;;4.70;1.52;;;;;;;3.75;100.00;99951.22;4938063;29;20214;-67
2022/02/23 07:46:28;;;;;;;1.33;1.25;;;;;;;3.77;100.00;99944.47;4937758;29;20091;-67
2022/02/23 07:49:00;;;;;;;2.33;1.77;;;;;;;3.82;100.00;99947.13;4936744;29;20032;-67
2022/02/23 07:51:26;;;;;;;0.80;0.80;;;;;;;4.10;100.00;99953.88;4938173;29;20032;-67
2022/02/23 07:53:53;;;;;;;1.05;1.05;;;;;;;4.23;100.00;99955.09;4938022;29;20370;-67
2022/02/23 07:56:21;;;;;;;0.60;0.60;;;;;;;4.28;100.00;99956.94;4937582;29;20477;-67
2022/02/23 07:58:46;;;;;;;3.63;1.85;;;;;;;4.46;100.00;99953.13;4937832;29;20027;-67
2022/02/23 08:01:33;;;;;;;1.25;1.25;;;;;;;4.46;99.58;99963.41;4937948;29;20491;-67
2022/02/23 08:03:58;;;;;;;1.13;1.13;;;;;;;4.37;99.99;99969.16;4926927;29;20513;-67
2022/02/23 08:06:24;;;;;;;1.80;1.70;;;;;;;4.64;99.95;99969.84;4933928;29;20027;-67
2022/02/23 08:08:49;;;;;;;1.65;1.55;;;;;;;4.79;98.91;99974.50;4937716;29;20036;-67
2022/02/23 08:11:18;;;;;;;1.67;1.25;;;;;;;4.90;98.61;99973.06;4937959;29;20028;-67
2022/02/23 08:13:44;;;;;;;1.27;1.27;;;;;;;5.07;97.41;99968.28;4936460;29;20348;-67
2022/02/23 08:21:39;;;;;;;1.38;1.27;;;;;;;6.95;90.38;99956.56;4937392;29;20098;-67
2022/02/23 08:24:05;;;;;;;1.20;1.20;;;;;;;8.74;79.61;99950.97;4936209;29;20031;-67
2022/02/23 08:26:30;;;;;;;1.38;1.30;;;;;;;10.81;69.39;99938.91;4937130;29;20074;-67
2022/02/23 08:28:55;;;;;;;1.38;1.25;;;;;;;13.45;60.11;99928.81;4936167;29;20024;-67
2022/02/23 08:31:21;;;;;;;0.73;0.73;;;;;;;14.51;55.42;99928.31;4937204;29;20039;-67
2022/02/23 08:33:46;;;;;;;0.88;0.88;;;;;;;14.08;53.72;99936.72;4928114;29;20027;-67
2022/02/23 08:36:11;;;;;;;1.15;1.10;;;;;;;14.94;53.58;99930.22;4931161;29;20111;-67
2022/02/23 08:38:37;;;;;;;1.50;0.88;;;;;;;15.90;50.17;99930.13;4936477;29;20473;-67
2022/02/23 08:41:03;;;;;;;1.40;1.20;;;;;;;16.75;47.15;99918.66;4937060;29;20102;-68
2022/02/23 08:43:29;;;;;;;1.20;0.90;;;;;;;16.56;48.04;99932.13;4937087;29;20028;-68
2022/02/23 08:45:54;;;;;;;2.30;0.80;;;;;;;18.34;43.79;99922.06;4936775;29;20068;-68
2022/02/23 08:48:20;;;;;;;1.40;0.90;;;;;;;18.93;41.99;99932.44;4936983;29;20477;-68
2022/02/23 08:50:45;;;;;;;0.60;0.60;;;;;;;18.47;42.88;99934.78;4936956;29;20019;-68
2022/02/23 08:53:10;;;;;;;0.35;0.35;;;;;;;17.54;43.91;99940.13;4936781;29;20024;-68
2022/02/23 08:55:36;;;;;;;0.80;0.80;;;;;;;19.22;41.64;99936.69;4935522;29;20055;-68
2022/02/23 08:58:01;;;;;;;1.23;0.95;;;;;;;19.89;39.64;99936.91;4936633;29;20481;-68
2022/02/23 09:00:27;;;;;;;1.75;0.88;;;;;;;19.32;39.86;99935.44;4936843;29;20497;-68
2022/02/23 09:02:53;;;;;;;2.05;0.93;;;;;;;19.96;39.12;99946.28;4930358;29;20078;-68
2022/02/23 09:05:19;;;;;;;1.45;1.00;;;;;;;19.69;39.73;99942.91;4928536;29;20690;-68
2022/02/23 09:07:44;;;;;;;6.35;1.15;;;;;;;20.74;38.16;99940.63;4936604;29;20058;-68
2022/02/23 09:10:09;;;;;;;2.60;0.98;;;;;;;20.36;38.04;99938.66;4936801;29;20436;-68
2022/02/23 09:12:35;;;;;;;1.88;0.85;;;;;;;19.98;36.73;99946.25;4936559;29;20023;-68
2022/02/23 09:15:00;;;;;;;0.88;0.88;;;;;;;20.45;37.90;99938.25;4936717;29;20024;-68
2022/02/23 09:17:25;;;;;;;0.75;0.75;;;;;;;21.45;34.72;99935.00;4936139;29;20493;-68
2022/02/23 09:19:51;;;;;;;3.80;1.45;;;;;;;22.74;33.50;99929.88;4936392;29;20035;-68
2022/02/23 09:22:17;;;;;;;0.73;0.47;;;;;;;21.63;34.97;99933.34;4936304;29;20548;-68
2022/02/23 09:24:42;;;;;;;0.75;0.40;;;;;;;22.75;32.59;99927.16;4936386;29;20028;-68
2022/02/23 09:27:08;;;;;;;0.70;0.40;;;;;;;22.93;32.47;99929.88;4936078;29;20027;-68
2022/02/23 09:29:36;;;;;;;6.82;0.50;;;;;;;24.13;31.56;99930.59;4936283;29;20039;-68
2022/02/23 09:32:03;;;;;;;0.70;0.57;;;;;;;23.36;30.95;99932.97;4932943;29;20028;-68
2022/02/23 09:34:29;;;;;;;0.80;0.50;;;;;;;22.92;31.72;99933.41;4925195;29;20489;-69
2022/02/23 09:36:54;;;;;;;2.53;0.85;;;;;;;23.54;31.07;99929.31;4935828;29;20020;-68
2022/02/23 09:39:19;;;;;;;1.55;1.13;;;;;;;22.33;32.89;99930.97;4935927;29;20110;-68
2022/02/23 09:41:46;;;;;;;0.65;0.65;;;;;;;23.26;31.14;99938.72;4936054;29;20469;-68
2022/02/23 09:44:16;;;;;;;1.63;1.35;;;;;;;23.05;32.49;99939.81;4935992;29;20030;-68
2022/02/23 09:46:41;;;;;;;1.70;0.60;;;;;;;23.37;31.50;99934.66;4935685;29;20520;-68
2022/02/23 09:49:07;;;;;;;1.17;0.45;;;;;;;23.60;30.89;99936.97;4935487;29;20036;-68
2022/02/23 09:51:33;;;;;;;0.20;0.20;;;;;;;22.45;30.92;99934.81;4935800;29;20027;-68
2022/02/23 09:53:58;;;;;;;0.60;0.60;;;;;;;20.54;33.79;99943.19;4935791;29;20071;-68
2022/02/23 09:56:25;;;;;;;0.32;0.32;;;;;;;18.87;37.90;99948.41;4935642;29;20483;-68
2022/02/23 09:58:53;;;;;;;1.27;0.90;;;;;;;21.23;32.62;99935.94;4934534;29;20082;-68
2022/02/23 10:01:21;;;;;;;0.22;0.22;;;;;;;21.16;33.94;99928.34;4935618;29;20035;-68
2022/02/23 10:03:48;;;;;;;0.47;0.47;;;;;;;22.04;32.26;99923.53;4926294;29;20032;-68
2022/02/23 10:06:26;;;;;;;1.38;0.55;;;;;;;23.87;29.52;99918.75;4930645;29;20108;-68
2022/02/23 10:09:03;;;;;;;1.15;0.40;;;;;;;24.80;27.41;99915.31;4935527;29;20032;-68
2022/02/23 10:11:29;;;;;;;1.25;0.60;;;;;;;24.70;27.99;99919.44;4935488;29;20070;-68
2022/02/23 10:13:56;;;;;;;2.58;0.35;;;;;;;22.87;31.50;99925.72;4935512;29;20533;-68
2022/02/23 10:16:27;;;;;;;3.33;1.35;;;;;;;22.93;29.17;99929.88;4934836;29;20031;-68
2022/02/23 10:19:05;;;;;;;0.47;0.47;;;;;;;26.53;26.27;99918.78;4935300;29;20031;-68
2022/02/23 10:21:46;;;;;;;0.85;0.38;;;;;;;24.21;27.58;99928.34;4935289;29;20024;-68
2022/02/23 10:24:37;;;;;;;2.63;0.55;;;;;;;19.86;33.79;99933.53;4935268;29;20107;-68
2022/02/23 10:27:04;;;;;;;0.75;0.30;;;;;;;23.72;27.56;99920.44;4933652;29;20019;-68
2022/02/23 10:29:54;;;;;;;0.63;0.40;;;;;;;21.68;28.87;99931.38;4935164;29;20083;-68
2022/02/23 10:32:22;;;;;;;0.15;0.15;;;;;;;22.90;28.25;99922.94;4929590;29;20217;-68
2022/02/23 10:34:50;;;;;;;3.97;0.57;;;;;;;24.55;25.08;99921.19;4926800;29;20519;-68
2022/02/23 10:37:21;;;;;;;0.50;0.50;;;;;;;24.25;26.89;99924.59;4934622;29;20027;-68
2022/02/23 10:39:53;;;;;;;0.05;0.05;;;;;;;25.86;24.66;99923.09;4935106;29;20027;-68
2022/02/23 10:42:26;;;;;;;1.95;0.80;;;;;;;25.46;24.67;99919.38;4935065;29;20032;-68
2022/02/23 10:44:53;;;;;;;2.97;0.68;;;;;;;26.23;23.65;99910.97;4934847;29;20036;-68
2022/02/23 10:47:24;;;;;;;0.20;0.20;;;;;;;26.35;23.99;99907.53;4934637;29;20075;-68
2022/02/23 10:50:10;;;;;;;0.35;0.25;;;;;;;23.56;25.93;99914.25;4934874;29;20393;-68
2022/02/23 10:52:38;;;;;;;2.30;0.80;;;;;;;22.05;29.26;99914.69;4934612;29;20044;-69
2022/02/23 10:55:14;;;;;;;1.33;0.87;;;;;;;24.62;26.52;99911.94;4934855;29;20028;-68
2022/02/23 10:57:57;;;;;;;1.30;0.43;;;;;;;22.55;27.93;99908.81;4934710;29;20066;-68
2022/02/23 11:00:27;;;;;;;1.38;1.27;;;;;;;21.09;30.75;99911.94;4934181;29;20028;-68
2022/02/23 11:02:54;;;;;;;1.98;0.35;;;;;;;18.63;34.69;99913.28;4928374;29;20027;-68
2022/02/23 11:05:23;;;;;;;0.30;0.30;;;;;;;18.99;33.70;99911.19;4926949;29;20031;-68
2022/02/23 11:07:49;;;;;;;;;;;;;;;17.89;39.93;99910.31;4934895;29;20031;-68
2022/02/23 11:10:14;;;;;;;1.35;0.60;;;;;;;20.72;33.09;99897.69;4934701;29;19919;-68
2022/02/23 11:12:43;;;;;;;9.63;3.90;;;;;;;21.87;30.61;99891.81;4934517;29;20075;-68
2022/02/23 11:15:09;;;;;;;0.50;0.50;;;;;;;22.07;31.53;99887.28;4934716;29;20465;-68
2022/02/23 11:17:38;;;;;;;1.17;0.80;;;;;;;19.14;33.80;99894.91;4934420;29;20058;-68
2022/02/23 11:20:05;;;;;;;2.00;0.40;;;;;;;21.69;30.29;99881.16;4934622;29;20028;-68
2022/02/23 11:22:31;;;;;;;2.90;0.30;;;;;;;21.74;29.49;99883.59;4934481;29;20032;-68
2022/02/23 11:24:57;;;;;;;0.20;0.20;;;;;;;21.97;28.47;99869.31;4934381;29;20106;-68
2022/02/23 11:27:25;;;;;;;0.10;0.10;;;;;;;21.78;29.14;99886.00;4934151;29;20032;-68
2022/02/23 11:30:05;;;;;;;1.10;0.98;;;;;;;22.79;27.19;99875.03;4935187;29;20449;-72
2022/02/23 11:32:32;;;;;;;2.25;0.40;;;;;;;23.62;26.52;99876.84;4928265;29;20137;-71
2022/02/23 11:34:57;;;;;;;0.22;0.22;;;;;;;22.36;28.20;99865.72;4926331;29;20478;-71
2022/02/23 11:37:23;;;;;;;0.70;0.45;;;;;;;22.97;27.00;99873.28;4934171;29;20032;-72
2022/02/23 11:39:50;;;;;;;1.30;0.73;;;;;;;22.27;28.28;99867.88;4934187;29;20023;-71
2022/02/23 11:42:21;;;;;;;0.57;0.52;;;;;;;21.29;29.39;99861.84;4934319;29;20039;-72
2022/02/23 11:44:49;;;;;;;0.20;0.20;;;;;;;21.90;27.54;99863.47;4934202;29;20028;-72
2022/02/23 11:50:21;;;;;;;0.30;0.30;;;;;;;19.12;33.58;99859.97;4934350;29;20066;-72
2022/02/23 11:52:48;;;;;;;0.90;0.75;;;;;;;21.30;30.54;99853.03;4934430;29;20457;-72
2022/02/23 11:55:32;;;;;;;0.40;0.40;;;;;;;22.16;27.38;99838.50;4934004;29;20082;-72
2022/02/23 11:57:58;;;;;;;0.57;0.50;;;;;;;22.58;28.69;99830.25;4934111;29;20027;-72
2022/02/23 12:00:30;;;;;;;2.40;0.50;;;;;;;22.18;28.88;99828.72;4933970;29;20374;-71
2022/02/23 12:03:06;;;;;;;0.73;0.35;;;;;;;19.59;31.14;99838.97;4928149;29;20305;-72
2022/02/23 12:05:47;;;;;;;1.85;0.47;;;;;;;20.11;31.08;99831.69;4925984;29;20027;-71
2022/02/23 12:08:31;;;;;;;1.92;1.27;;;;;;;21.06;30.45;99811.91;4934065;29;20023;-71
2022/02/23 12:11:15;;;;;;;1.73;0.55;;;;;;;20.66;30.80;99821.56;4934359;29;20032;-71
2022/02/23 12:13:49;;;;;;;0.32;0.32;;;;;;;19.52;30.84;99832.22;4937502;29;20060;-71
2022/02/23 12:16:25;;;;;;;0.82;0.30;;;;;;;22.35;28.20;99813.84;4937116;29;20032;-72
2022/02/23 12:18:58;;;;;;;0.55;0.40;;;;;;;22.89;26.71;99809.38;4937718;29;20036;-72
2022/02/23 12:21:47;;;;;;;2.05;0.30;;;;;;;23.78;27.53;99795.69;4937267;29;20023;-72
2022/02/23 12:24:15;;;;;;;1.45;0.40;;;;;;;23.56;25.61;99803.09;4937356;29;20489;-72
2022/02/23 12:26:42;;;;;;;1.40;0.50;;;;;;;22.35;27.21;99806.78;4937063;29;20054;-72
2022/02/23 12:29:09;;;;;;;0.25;0.25;;;;;;;22.04;28.70;99797.69;4937491;29;20040;-72
2022/02/23 12:31:36;;;;;;;2.17;0.90;;;;;;;19.31;31.85;99806.75;4937171;29;20027;-71
2022/02/23 12:34:05;;;;;;;0.52;0.22;;;;;;;18.46;34.39;99798.31;4925990;29;20030;-72
2022/02/23 12:36:51;;;;;;;0.98;0.52;;;;;;;17.75;36.21;99804.16;4934674;29;20024;-71
2022/02/23 12:39:22;;;;;;;1.75;0.60;;;;;;;16.52;37.67;99799.66;4937402;29;20035;-71
2022/02/23 12:41:53;;;;;;;2.92;1.48;;;;;;;16.00;36.74;99795.72;4937122;29;20087;-71
2022/02/23 12:44:21;;;;;;;5.13;0.82;;;;;;;15.63;38.35;99786.13;4936992;29;20395;-71
2022/02/23 12:46:46;;;;;;;0.50;0.50;;;;;;;14.78;42.63;99788.72;4936772;29;20055;-70
2022/02/23 12:49:13;;;;;;;0.65;0.57;;;;;;;13.57;42.75;99792.41;4937227;29;20062;-71
2022/02/23 12:51:41;;;;;;;1.40;0.50;;;;;;;13.72;41.60;99781.75;4936898;29;20489;-70
2022/02/23 12:54:08;;;;;;;0.30;0.30;;;;;;;13.77;42.89;99779.09;4936970;29;20481;-71
2022/02/23 12:56:42;;;;;;;0.65;0.55;;;;;;;13.58;46.88;99774.13;4937003;29;20102;-70
2022/02/23 12:59:10;;;;;;;1.15;1.15;;;;;;;13.80;44.18;99771.25;4935632;29;20035;-70
2022/02/23 13:01:38;;;;;;;2.42;1.55;;;;;;;14.13;43.51;99762.88;4936913;29;20444;-71
2022/02/23 13:04:06;;;;;;;0.63;0.63;;;;;;;14.24;42.22;99760.09;4919088;29;20083;-71
2022/02/23 13:06:35;;;;;;;6.03;2.47;;;;;;;13.78;42.49;99750.44;4932498;29;20103;-70
2022/02/23 13:09:04;;;;;;;1.90;0.55;;;;;;;14.26;42.35;99752.25;4936572;29;20032;-70
2022/02/23 13:11:42;;;;;;;0.40;0.40;;;;;;;14.11;43.62;99742.94;4936540;29;20023;-71
2022/02/23 13:14:09;;;;;;;1.98;0.68;;;;;;;13.15;43.93;99746.94;4936672;29;20027;-70
2022/02/23 13:16:35;;;;;;;0.30;0.30;;;;;;;13.32;44.16;99735.47;4936254;29;20071;-71
2022/02/23 13:19:05;;;;;;;0.45;0.45;;;;;;;13.44;43.68;99742.25;4936356;29;20024;-70
2022/02/23 13:21:40;;;;;;;1.25;1.15;;;;;;;13.84;42.15;99733.84;4950795;29;20020;-71
2022/02/23 13:24:07;;;;;;;1.20;1.10;;;;;;;13.92;43.06;99737.16;4935846;29;20028;-71
2022/02/23 13:26:38;;;;;;;0.77;0.77;;;;;;;13.38;44.20;99731.91;4936033;29;20028;-70
2022/02/23 13:29:03;;;;;;;0.40;0.40;;;;;;;13.60;43.89;99735.09;4936383;29;20031;-70
2022/02/23 13:31:32;;;;;;;1.10;0.85;;;;;;;13.82;44.69;99719.97;4934961;29;20436;-70
2022/02/23 13:34:18;;;;;;;2.28;0.68;;;;;;;13.87;43.76;99718.16;4925834;29;20039;-70
2022/02/23 13:36:43;;;;;;;0.70;0.70;;;;;;;13.90;43.96;99718.09;4934913;29;20043;-71
2022/02/23 13:39:26;;;;;;;0.40;0.40;;;;;;;14.04;44.32;99721.34;4936133;29;20031;-70
2022/02/23 13:42:09;;;;;;;1.05;0.98;;;;;;;13.59;43.02;99718.59;4936064;29;20051;-71
2022/02/23 13:44:38;;;;;;;2.55;0.70;;;;;;;13.80;43.25;99716.53;4934615;29;20027;-70
2022/02/23 13:47:15;;;;;;;0.40;0.40;;;;;;;13.94;44.28;99701.53;4935906;29;20407;-71
2022/02/23 13:50:21;;;;;;;2.25;1.23;;;;;;;13.30;43.69;99710.34;4935822;29;20469;-70
2022/02/23 13:52:51;;;;;;;1.27;1.17;;;;;;;12.62;45.29;99707.72;4914495;29;20060;-71
2022/02/23 13:55:37;;;;;;;2.17;1.05;;;;;;;12.60;45.12;99699.91;4914391;29;20028;-72
2022/02/23 13:58:12;;;;;;;1.15;0.52;;;;;;;13.00;43.67;99699.41;4920709;29;20043;-71
2022/02/23 14:00:46;;;;;;;5.53;0.65;;;;;;;13.26;43.48;99691.31;4935696;29;20031;-72
2022/02/23 14:03:22;;;;;;;0.52;0.50;;;;;;;13.60;42.69;99689.06;4929114;29;20031;-71
2022/02/23 14:05:59;;;;;;;3.00;1.05;;;;;;;13.05;44.57;99694.16;4926029;29;20126;-71
2022/02/23 14:08:38;;;;;;;0.40;0.40;;;;;;;13.16;45.62;99686.22;4935632;29;20031;-71
2022/02/23 14:11:17;;;;;;;3.50;0.52;;;;;;;13.50;44.18;99677.06;4934231;29;20027;-72
2022/02/23 14:13:51;;;;;;;;;;;;;;;13.26;44.31;99667.88;4935824;29;20063;-72
2022/02/23 14:16:18;;;;;;;0.77;0.47;;;;;;;12.76;43.49;99666.78;4935001;29;20284;-71
2022/02/23 14:18:51;;;;;;;4.05;0.82;;;;;;;13.57;44.19;99655.25;4932735;29;20429;-72
2022/02/23 14:21:17;;;;;;;0.45;0.45;;;;;;;13.48;43.71;99655.38;4915543;29;20031;-71
2022/02/23 14:23:44;;;;;;;4.03;0.88;;;;;;;13.59;42.51;99643.09;4916095;29;20032;-72
2022/02/23 14:26:11;;;;;;;2.65;0.52;;;;;;;13.24;43.15;99642.75;4915129;29;20039;-71
2022/02/23 14:28:44;;;;;;;1.55;0.88;;;;;;;13.53;42.60;99640.56;4925171;29;20024;-71
2022/02/23 14:31:35;;;;;;;3.78;1.08;;;;;;;13.39;41.54;99639.91;4935268;29;20066;-71
2022/02/23 14:34:21;;;;;;;0.50;0.50;;;;;;;13.41;42.12;99635.56;4924158;29;20520;-71
2022/02/23 14:36:48;;;;;;;0.52;0.50;;;;;;;13.61;42.89;99628.28;4933673;29;20034;-71
2022/02/23 14:39:14;;;;;;;1.23;1.13;;;;;;;13.42;43.09;99631.22;4935124;29;20495;-71
2022/02/23 14:41:39;;;;;;;0.40;0.40;;;;;;;13.04;43.59;99628.25;4935013;29;20213;-71
2022/02/23 14:44:06;;;;;;;0.50;0.50;;;;;;;12.80;44.53;99626.00;4935051;29;20362;-71
2022/02/23 14:46:31;;;;;;;0.50;0.50;;;;;;;12.94;45.21;99621.47;4934646;29;20046;-71
2022/02/23 14:48:57;;;;;;;0.75;0.75;;;;;;;12.34;44.47;99629.19;4928693;29;20546;-71
2022/02/23 14:51:24;;;;;;;0.82;0.40;;;;;;;12.43;44.98;99620.41;4919964;29;20385;-71
2022/02/23 14:53:50;;;;;;;1.27;1.13;;;;;;;12.67;43.78;99608.81;4915828;29;20186;-71
2022/02/23 14:56:16;;;;;;;1.65;0.60;;;;;;;13.12;44.15;99607.34;4915726;29;20024;-71
2022/02/23 14:58:42;;;;;;;2.88;0.45;;;;;;;12.80;43.88;99616.44;4915835;29;20079;-71
2022/02/23 15:01:07;;;;;;;0.38;0.38;;;;;;;12.97;43.99;99611.03;4915849;29;20486;-71
2022/02/23 15:03:33;;;;;;;0.98;0.95;;;;;;;12.53;45.49;99615.09;4922182;29;20442;-71
2022/02/23 15:05:58;;;;;;;0.57;0.57;;;;;;;12.77;44.92;99608.72;4926921;29;20028;-71
2022/02/23 15:08:24;;;;;;;0.52;0.52;;;;;;;12.57;43.63;99603.78;4934965;29;20035;-71
2022/02/23 15:10:49;;;;;;;0.47;0.47;;;;;;;12.46;44.72;99605.63;4934728;29;20082;-72
2022/02/23 15:13:15;;;;;;;0.47;0.47;;;;;;;12.70;45.79;99601.00;4934702;29;20524;-71
2022/02/23 15:15:40;;;;;;;0.30;0.30;;;;;;;12.74;45.54;99594.88;4934464;29;20032;-71
2022/02/23 15:18:06;;;;;;;0.45;0.45;;;;;;;12.52;44.14;99595.19;4929623;29;20384;-71
2022/02/23 15:20:31;;;;;;;1.25;0.32;;;;;;;12.33;46.12;99593.69;4926628;29;20445;-72
2022/02/23 15:22:57;;;;;;;0.43;0.43;;;;;;;12.49;45.76;99595.19;4934703;29;20031;-71
2022/02/23 15:25:23;;;;;;;0.98;0.93;;;;;;;12.38;45.00;99591.88;4934444;29;20035;-71
2022/02/23 15:27:48;;;;;;;1.58;0.43;;;;;;;12.43;45.23;99590.09;4934387;29;20496;-72
2022/02/23 15:30:14;;;;;;;1.35;0.60;;;;;;;12.21;45.21;99588.63;4934475;29;20402;-71
2022/02/23 15:32:39;;;;;;;2.65;1.17;;;;;;;12.16;45.01;99580.00;4927672;29;20024;-71
2022/02/23 15:35:05;;;;;;;0.40;0.40;;;;;;;12.15;46.36;99573.09;4925207;29;20040;-71
2022/02/23 15:37:31;;;;;;;0.57;0.57;;;;;;;12.05;46.17;99573.22;4934344;29;20466;-71
2022/02/23 15:39:56;;;;;;;0.85;0.85;;;;;;;12.05;45.40;99578.41;4934566;29;20056;-71
2022/02/23 15:42:22;;;;;;;0.40;0.40;;;;;;;12.03;45.78;99574.94;4934529;29;20493;-72
2022/02/23 15:44:47;;;;;;;0.70;0.70;;;;;;;11.94;47.03;99577.66;4934332;29;20114;-71
2022/02/23 15:47:13;;;;;;;1.17;0.50;;;;;;;12.04;46.83;99568.91;4933761;29;20036;-71
2022/02/23 15:49:38;;;;;;;4.05;0.82;;;;;;;12.03;47.13;99577.53;4942308;29;20111;-71
2022/02/23 15:52:04;;;;;;;0.43;0.43;;;;;;;11.80;46.96;99569.13;4936852;29;20118;-72
2022/02/23 15:54:30;;;;;;;0.50;0.50;;;;;;;11.70;46.56;99559.69;4937968;29;20145;-71
2022/02/23 15:56:55;;;;;;;0.30;0.30;;;;;;;11.69;47.00;99556.22;4937701;29;20110;-71
2022/02/23 15:59:21;;;;;;;0.40;0.40;;;;;;;11.53;46.64;99554.66;4937865;29;20068;-72
2022/02/23 16:01:46;;;;;;;0.43;0.43;;;;;;;11.61;46.85;99554.59;4937014;29;20024;-71